Beaminster, United Kingdom
Current Conditions -  °F | °C
As of 11:50 AM on Wednesday 28 Jan 2015 (Local Time) from EGDY Reporting Station
Rain Showers Rain Showers  
Wind Chill: 32°   Ceiling: 2100
Heat Index: 43°   Visibility: 6mi
Dew Point: 37°   Wind: 33mph
Humidity: 81%   Direction: 290°WNW
Pressure: 29.68"   Gusts: 51mph
Location:  50.81°N, 2.74°W
Report Text: EGDY 281150Z AUTO 29029G44KT 9999 -SHRA BKN021/// SCT080/// 06/03 Q1005
Loading
Personal Weather Stations






























Interactive Weather Map New forecast layout! Learn more

10-Day Weather Forecast

Advertisements
Track Severe Weather on mobile